createdAt,value
2017-11-03T00:01:53.643Z,12.20
2017-11-03T00:04:20.023Z,11.90
2017-11-03T00:06:46.404Z,12.20
2017-11-03T00:09:12.764Z,12.10
2017-11-03T00:11:39.122Z,12.10
2017-11-03T00:14:06.197Z,12.10
2017-11-03T00:16:32.737Z,12.10
2017-11-03T00:18:59.065Z,12.00
2017-11-03T00:21:25.739Z,12.10
2017-11-03T00:23:52.861Z,11.90
2017-11-03T00:26:19.212Z,12.20
2017-11-03T00:28:45.589Z,12.10
2017-11-03T00:31:11.915Z,12.10
2017-11-03T00:33:38.252Z,12.10
2017-11-03T00:36:04.785Z,12.00
2017-11-03T00:38:31.135Z,12.00
2017-11-03T00:40:57.481Z,11.80
2017-11-03T00:43:23.818Z,11.80
2017-11-03T00:45:50.162Z,11.80
2017-11-03T00:48:16.520Z,11.80
2017-11-03T00:50:42.873Z,11.90
2017-11-03T00:53:09.206Z,12.10
2017-11-03T00:55:35.553Z,11.90
2017-11-03T00:58:01.926Z,12.00
2017-11-03T01:00:28.289Z,12.30
2017-11-03T01:02:54.849Z,12.30
2017-11-03T01:05:21.298Z,12.10
2017-11-03T01:07:47.632Z,12.00
2017-11-03T01:10:14.005Z,11.90
2017-11-03T01:12:40.360Z,12.00
2017-11-03T01:15:06.697Z,12.10
2017-11-03T01:17:33.121Z,12.10
2017-11-03T01:19:59.492Z,12.40
2017-11-03T01:22:25.925Z,11.90
2017-11-03T01:24:52.301Z,12.00
2017-11-03T01:27:18.793Z,12.20
2017-11-03T01:29:45.156Z,12.00
2017-11-03T01:32:12.961Z,11.90
2017-11-03T01:34:39.329Z,11.90
2017-11-03T01:37:05.679Z,12.10
2017-11-03T01:39:32.053Z,12.10
2017-11-03T01:41:59.134Z,12.10
2017-11-03T01:44:25.482Z,12.10
2017-11-03T01:46:51.845Z,12.10
2017-11-03T01:49:19.041Z,12.00
2017-11-03T01:51:45.947Z,11.90
2017-11-03T01:54:12.118Z,11.90
2017-11-03T01:56:38.260Z,12.00
2017-11-03T01:59:04.442Z,12.00
2017-11-03T02:01:30.612Z,11.90
2017-11-03T02:03:56.769Z,12.00
2017-11-03T02:06:22.930Z,11.50
2017-11-03T02:08:49.095Z,11.80
2017-11-03T02:11:15.505Z,11.80
2017-11-03T02:13:41.871Z,11.80
2017-11-03T02:16:08.220Z,12.20
2017-11-03T02:18:35.319Z,12.00
2017-11-03T02:21:01.680Z,12.10
2017-11-03T02:23:28.037Z,12.00
2017-11-03T02:25:54.434Z,11.80
2017-11-03T02:28:21.535Z,11.80
2017-11-03T02:30:47.896Z,11.80
2017-11-03T02:33:14.246Z,11.70
2017-11-03T02:35:40.604Z,11.70
2017-11-03T02:38:06.957Z,11.70
2017-11-03T02:40:34.077Z,11.60
2017-11-03T02:43:00.425Z,11.70
2017-11-03T02:45:26.776Z,11.60
2017-11-03T02:47:53.294Z,11.70
2017-11-03T02:50:19.704Z,11.70
2017-11-03T02:52:46.805Z,11.80
2017-11-03T02:55:13.158Z,11.90
2017-11-03T02:57:39.568Z,11.60
2017-11-03T03:00:06.668Z,11.50
2017-11-03T03:02:33.003Z,11.70
2017-11-03T03:04:59.324Z,11.40
2017-11-03T03:07:26.423Z,11.50
2017-11-03T03:09:52.587Z,11.50
2017-11-03T03:12:18.936Z,11.70
2017-11-03T03:14:45.102Z,12.20
2017-11-03T03:17:12.212Z,11.50
2017-11-03T03:19:38.591Z,11.50
2017-11-03T03:22:04.761Z,11.40
2017-11-03T03:24:31.164Z,11.50
2017-11-03T03:26:57.561Z,11.50
2017-11-03T03:29:23.946Z,11.30
2017-11-03T03:31:50.417Z,11.80
2017-11-03T03:34:16.797Z,11.90
2017-11-03T03:36:43.152Z,11.70
2017-11-03T03:39:10.246Z,11.80
2017-11-03T03:41:37.335Z,11.70
2017-11-03T03:44:03.710Z,11.70
2017-11-03T03:46:30.066Z,11.70
2017-11-03T03:48:56.427Z,11.70
2017-11-03T03:51:22.769Z,11.60
2017-11-03T03:53:49.133Z,11.90
2017-11-03T03:56:16.278Z,11.90
2017-11-03T03:58:42.639Z,11.90
2017-11-03T04:01:08.999Z,11.90
2017-11-03T04:03:35.376Z,11.70
2017-11-03T04:06:02.478Z,11.80
2017-11-03T04:08:28.878Z,11.80
2017-11-03T04:10:55.237Z,11.80
2017-11-03T04:13:21.585Z,11.70
2017-11-03T04:15:49.093Z,11.70
2017-11-03T04:18:15.254Z,11.70
2017-11-03T04:20:41.631Z,11.90
2017-11-03T04:23:07.986Z,11.50
2017-11-03T04:25:34.356Z,11.50
2017-11-03T04:28:00.767Z,11.40
2017-11-03T04:30:27.126Z,11.50
2017-11-03T04:32:54.240Z,11.60
2017-11-03T04:35:20.608Z,11.60
2017-11-03T04:37:47.021Z,11.90
2017-11-03T04:40:13.397Z,11.70
2017-11-03T04:42:39.757Z,12.00
2017-11-03T04:45:06.103Z,11.70
2017-11-03T04:47:32.505Z,11.90
2017-11-03T04:49:58.910Z,11.70
2017-11-03T04:52:25.264Z,11.70
2017-11-03T04:54:53.152Z,11.70
2017-11-03T04:57:19.337Z,11.60
2017-11-03T04:59:45.516Z,12.10
2017-11-03T05:02:11.849Z,11.50
2017-11-03T05:04:41.657Z,11.40
2017-11-03T05:07:07.797Z,11.40
2017-11-03T05:09:34.667Z,11.60
2017-11-03T05:12:00.819Z,11.70
2017-11-03T05:14:27.112Z,11.50
2017-11-03T05:16:53.247Z,11.30
2017-11-03T05:19:19.421Z,11.40
2017-11-03T05:21:46.293Z,11.60
2017-11-03T05:24:12.440Z,11.60
2017-11-03T05:26:38.580Z,11.90
2017-11-03T05:29:05.462Z,11.40
2017-11-03T05:31:31.900Z,11.50
2017-11-03T05:33:58.058Z,11.50
2017-11-03T05:36:24.282Z,11.30
2017-11-03T05:38:50.583Z,11.40
2017-11-03T05:41:16.771Z,11.50
2017-11-03T05:43:42.930Z,11.30
2017-11-03T05:46:11.263Z,11.60
2017-11-03T05:48:37.449Z,11.50
2017-11-03T05:51:03.610Z,11.50
2017-11-03T05:53:30.709Z,11.60
2017-11-03T05:55:56.848Z,11.40
2017-11-03T05:58:23.002Z,12.10
2017-11-03T06:00:49.934Z,11.50
2017-11-03T06:03:16.091Z,11.20
2017-11-03T06:05:42.238Z,11.70
2017-11-03T06:08:09.145Z,11.30
2017-11-03T06:10:35.298Z,11.20
2017-11-03T06:13:01.446Z,11.40
2017-11-03T06:15:27.609Z,11.30
2017-11-03T06:17:54.721Z,11.40
2017-11-03T06:20:23.658Z,11.20
2017-11-03T06:22:49.857Z,10.90
2017-11-03T06:25:16.050Z,11.20
2017-11-03T06:27:42.223Z,11.20
2017-11-03T06:30:08.389Z,11.20
2017-11-03T06:32:34.557Z,11.20
2017-11-03T06:35:00.689Z,11.10
2017-11-03T06:37:26.835Z,11.20
2017-11-03T06:39:53.004Z,11.20
2017-11-03T06:42:19.264Z,11.20
2017-11-03T06:44:45.425Z,11.40
2017-11-03T06:47:11.597Z,11.10
2017-11-03T06:49:37.761Z,11.60
2017-11-03T06:52:03.929Z,11.20
2017-11-03T06:54:30.236Z,11.40
2017-11-03T06:56:56.713Z,11.20
2017-11-03T06:59:23.093Z,11.20
2017-11-03T07:01:50.300Z,11.20
2017-11-03T07:04:17.574Z,11.30
2017-11-03T07:06:43.742Z,11.10
2017-11-03T07:09:09.935Z,11.40
2017-11-03T07:11:36.324Z,11.10
2017-11-03T07:14:02.982Z,11.70
2017-11-03T07:16:29.374Z,11.20
2017-11-03T07:18:55.756Z,11.00
2017-11-03T07:21:22.148Z,11.50
2017-11-03T07:23:49.256Z,11.30
2017-11-03T07:26:15.617Z,11.30
2017-11-03T07:28:41.986Z,11.40
2017-11-03T07:31:08.368Z,11.40
2017-11-03T07:33:34.793Z,11.40
2017-11-03T07:36:01.908Z,11.40
2017-11-03T07:38:28.061Z,11.40
2017-11-03T07:40:54.412Z,11.30
2017-11-03T07:43:20.858Z,11.80
2017-11-03T07:45:47.194Z,11.40
2017-11-03T07:48:13.550Z,11.40
2017-11-03T07:50:39.953Z,11.50
2017-11-03T07:53:06.304Z,11.40
2017-11-03T07:55:32.658Z,11.50
2017-11-03T07:57:59.768Z,11.70
2017-11-03T08:00:26.117Z,11.70
2017-11-03T08:02:53.193Z,11.50
2017-11-03T08:05:20.281Z,11.50
2017-11-03T08:07:47.505Z,11.60
2017-11-03T08:10:13.658Z,11.60
2017-11-03T08:12:40.686Z,11.50
2017-11-03T08:15:07.631Z,11.50
2017-11-03T08:17:33.812Z,11.50
2017-11-03T08:20:00.681Z,11.40
2017-11-03T08:22:27.563Z,11.50
2017-11-03T08:24:53.696Z,11.50
2017-11-03T08:27:19.999Z,11.30
2017-11-03T08:29:46.877Z,11.40
2017-11-03T08:32:13.022Z,11.10
2017-11-03T08:34:40.065Z,11.50
2017-11-03T08:37:06.294Z,11.50
2017-11-03T08:39:33.184Z,11.70
2017-11-03T08:41:59.316Z,11.70
2017-11-03T08:44:25.467Z,11.80
2017-11-03T08:46:51.609Z,11.70
2017-11-03T08:49:17.765Z,11.70
2017-11-03T08:51:44.268Z,11.80
2017-11-03T08:54:11.143Z,11.70
2017-11-03T08:56:37.309Z,11.60
2017-11-03T08:59:03.506Z,11.70
2017-11-03T09:01:42.538Z,11.50
2017-11-03T09:04:08.688Z,11.50
2017-11-03T09:06:35.585Z,11.80
2017-11-03T09:09:01.725Z,11.80
2017-11-03T09:11:27.906Z,11.70
2017-11-03T09:13:54.056Z,12.20
2017-11-03T09:16:22.234Z,11.90
2017-11-03T09:18:49.138Z,11.70
2017-11-03T09:21:15.306Z,11.70
2017-11-03T09:23:41.456Z,12.20
2017-11-03T09:26:08.379Z,12.10
2017-11-03T09:28:34.591Z,12.00
2017-11-03T09:31:00.791Z,12.00
2017-11-03T09:33:33.398Z,12.00
2017-11-03T09:35:59.565Z,11.90
2017-11-03T09:38:25.725Z,12.10
2017-11-03T09:40:51.913Z,12.20
2017-11-03T09:43:18.061Z,12.20
2017-11-03T09:45:44.257Z,12.20
2017-11-03T09:48:10.413Z,11.80
2017-11-03T09:50:38.710Z,11.60
2017-11-03T09:53:04.898Z,11.80
2017-11-03T09:55:31.048Z,11.90
2017-11-03T09:57:57.198Z,11.90
2017-11-03T10:00:23.337Z,12.10
2017-11-03T10:02:49.496Z,11.80
2017-11-03T10:05:15.657Z,11.90
2017-11-03T10:07:41.808Z,12.10
2017-11-03T10:10:11.078Z,11.80
2017-11-03T10:12:37.230Z,11.80
2017-11-03T10:15:03.382Z,12.00
2017-11-03T10:17:29.562Z,11.90
2017-11-03T10:19:55.770Z,11.80
2017-11-03T10:22:22.724Z,11.90
2017-11-03T10:24:49.649Z,12.10
2017-11-03T10:27:22.616Z,12.10
2017-11-03T10:29:48.757Z,12.10
2017-11-03T10:32:14.923Z,12.10
2017-11-03T10:34:41.185Z,12.00
2017-11-03T10:37:07.393Z,11.90
2017-11-03T10:39:33.592Z,12.10
2017-11-03T10:41:59.725Z,12.20
2017-11-03T10:44:31.894Z,12.30
2017-11-03T10:46:58.037Z,12.20
2017-11-03T10:49:24.177Z,12.90
2017-11-03T10:51:50.338Z,12.40
2017-11-03T10:54:16.499Z,12.50
2017-11-03T10:56:42.660Z,12.40
2017-11-03T10:59:08.862Z,12.60
2017-11-03T11:01:35.021Z,12.80
2017-11-03T11:04:07.359Z,12.60
2017-11-03T11:06:33.548Z,12.60
2017-11-03T11:09:00.448Z,12.50
2017-11-03T11:11:26.617Z,12.50
2017-11-03T11:13:52.816Z,12.40
2017-11-03T11:16:18.973Z,12.40
2017-11-03T11:18:45.142Z,12.80
2017-11-03T11:21:17.737Z,12.70
2017-11-03T11:23:43.911Z,12.90
2017-11-03T11:26:10.088Z,12.90
2017-11-03T11:28:37.008Z,12.80
2017-11-03T11:31:03.191Z,12.80
2017-11-03T11:33:29.352Z,12.50
2017-11-03T11:35:56.244Z,12.20
2017-11-03T11:38:22.385Z,12.20
2017-11-03T11:40:50.282Z,12.30
2017-11-03T11:43:16.432Z,12.50
2017-11-03T11:45:43.408Z,12.90
2017-11-03T11:48:10.488Z,13.20
2017-11-03T11:50:37.019Z,13.30
2017-11-03T11:53:03.177Z,13.50
2017-11-03T11:55:29.317Z,13.50
2017-11-03T11:58:02.242Z,13.30
2017-11-03T12:00:28.384Z,12.90
2017-11-03T12:02:54.597Z,13.00
2017-11-03T12:05:20.768Z,13.10
2017-11-03T12:07:46.913Z,12.80
2017-11-03T12:10:13.081Z,12.80
2017-11-03T12:12:39.313Z,12.70
2017-11-03T12:15:10.145Z,13.10
2017-11-03T12:17:37.036Z,12.80
2017-11-03T12:20:03.186Z,12.90
2017-11-03T12:22:29.355Z,12.80
2017-11-03T12:24:55.511Z,12.80
2017-11-03T12:27:21.953Z,12.70
2017-11-03T12:29:48.901Z,12.70
2017-11-03T12:32:15.060Z,12.80
2017-11-03T12:37:19.275Z,12.80
2017-11-03T12:39:45.420Z,12.80
2017-11-03T12:42:11.578Z,12.70
2017-11-03T12:44:37.840Z,12.40
2017-11-03T12:47:04.001Z,13.00
2017-11-03T12:49:30.137Z,12.90
2017-11-03T12:52:02.962Z,13.20
2017-11-03T12:54:29.185Z,13.40
2017-11-03T12:56:55.362Z,13.30
2017-11-03T12:59:22.371Z,13.10
2017-11-03T13:01:48.533Z,13.00
2017-11-03T13:04:14.680Z,13.00
2017-11-03T13:06:41.600Z,13.40
2017-11-03T13:09:13.812Z,13.70
2017-11-03T13:11:39.973Z,13.30
2017-11-03T13:14:06.157Z,13.20
2017-11-03T13:16:32.305Z,13.40
2017-11-03T13:18:58.437Z,13.30
2017-11-03T13:21:24.592Z,13.20
2017-11-03T13:23:51.571Z,13.30
2017-11-03T13:26:18.896Z,13.30
2017-11-03T13:28:45.080Z,13.30
2017-11-03T13:31:11.245Z,13.30
2017-11-03T13:33:37.395Z,13.30
2017-11-03T13:36:04.327Z,13.20
2017-11-03T13:38:30.493Z,13.70
2017-11-03T13:40:56.626Z,13.50
2017-11-03T13:43:22.801Z,13.20
2017-11-03T13:45:52.488Z,13.20
2017-11-03T13:48:18.653Z,13.20
2017-11-03T13:50:44.829Z,13.20
2017-11-03T13:53:10.989Z,13.20
2017-11-03T13:55:37.905Z,13.10
2017-11-03T13:58:04.821Z,13.00
2017-11-03T14:00:31.004Z,13.10
2017-11-03T14:02:57.911Z,12.80
2017-11-03T14:05:27.619Z,12.80
2017-11-03T14:07:54.544Z,12.80
2017-11-03T14:10:20.834Z,13.10
2017-11-03T14:12:47.711Z,12.90
2017-11-03T14:15:14.601Z,12.90
2017-11-03T14:17:57.798Z,12.90
2017-11-03T14:20:29.085Z,12.90
2017-11-03T14:22:55.474Z,12.90
2017-11-03T14:25:21.874Z,12.90
2017-11-03T14:27:48.294Z,13.20
2017-11-03T14:30:14.981Z,12.90
2017-11-03T14:32:41.326Z,12.90
2017-11-03T14:35:07.677Z,12.80
2017-11-03T14:37:34.025Z,12.90
2017-11-03T14:40:01.229Z,12.90
2017-11-03T14:42:27.589Z,12.90
2017-11-03T14:44:53.933Z,13.20
2017-11-03T14:47:20.293Z,13.00
2017-11-03T14:49:46.640Z,13.50
2017-11-03T14:52:12.976Z,13.10
2017-11-03T14:54:39.320Z,12.90
2017-11-03T14:57:06.456Z,12.80
2017-11-03T14:59:32.869Z,12.80
2017-11-03T15:01:59.213Z,12.70
2017-11-03T15:04:25.612Z,12.60
2017-11-03T15:06:52.853Z,12.50
2017-11-03T15:09:19.245Z,12.50
2017-11-03T15:11:46.362Z,12.50
2017-11-03T15:14:13.097Z,12.40
2017-11-03T15:16:39.466Z,12.40
2017-11-03T15:19:05.884Z,12.30
2017-11-03T15:21:32.234Z,12.20
2017-11-03T15:23:58.599Z,12.20
2017-11-03T15:26:26.034Z,12.10
2017-11-03T15:28:52.457Z,12.10
2017-11-03T15:31:19.574Z,12.00
2017-11-03T15:33:45.950Z,11.90
2017-11-03T15:36:13.098Z,12.00
2017-11-03T15:38:39.466Z,12.20
2017-11-03T15:41:06.654Z,12.10
2017-11-03T15:43:33.079Z,12.00
2017-11-03T15:46:00.161Z,12.10
2017-11-03T15:48:26.493Z,12.10
2017-11-03T15:50:52.912Z,12.10
2017-11-03T15:53:19.316Z,12.10
2017-11-03T15:55:45.665Z,11.90
2017-11-03T15:58:12.047Z,12.10
2017-11-03T16:00:39.140Z,12.00
2017-11-03T16:03:09.826Z,12.00
2017-11-03T16:05:36.955Z,12.10
2017-11-03T16:08:03.297Z,12.10
2017-11-03T16:10:29.658Z,12.60
2017-11-03T16:12:56.040Z,12.00
2017-11-03T16:15:22.477Z,12.40
2017-11-03T16:17:48.909Z,12.00
2017-11-03T16:20:15.317Z,11.90
2017-11-03T16:22:41.673Z,11.90
2017-11-03T16:25:08.017Z,11.80
2017-11-03T16:27:34.366Z,12.00
2017-11-03T16:30:00.717Z,11.90
2017-11-03T16:32:27.057Z,11.50
2017-11-03T16:34:53.470Z,12.30
2017-11-03T16:37:19.833Z,12.20
2017-11-03T16:39:46.269Z,11.90
2017-11-03T16:42:12.644Z,11.90
2017-11-03T16:44:39.033Z,11.90
2017-11-03T16:47:06.176Z,11.90
2017-11-03T16:49:33.359Z,11.90
2017-11-03T16:51:59.786Z,11.80
2017-11-03T16:54:26.181Z,11.90
2017-11-03T16:56:52.520Z,11.90
2017-11-03T16:59:18.922Z,11.90
2017-11-03T17:01:45.369Z,11.90
2017-11-03T17:04:12.565Z,11.90
2017-11-03T17:06:38.930Z,11.80
2017-11-03T17:09:05.288Z,11.90
2017-11-03T17:11:31.656Z,11.90
2017-11-03T17:13:58.822Z,11.80
2017-11-03T17:16:25.233Z,12.00
2017-11-03T17:18:52.453Z,11.80
2017-11-03T17:21:18.833Z,11.80
2017-11-03T17:23:45.257Z,11.80
2017-11-03T17:26:11.676Z,11.80
2017-11-03T17:28:44.662Z,11.90
2017-11-03T17:31:11.054Z,11.80
2017-11-03T17:33:37.395Z,11.70
2017-11-03T17:36:03.741Z,11.80
2017-11-03T17:38:30.821Z,11.80
2017-11-03T17:40:57.930Z,11.80
2017-11-03T17:43:28.048Z,11.80
2017-11-03T17:45:55.151Z,11.70
2017-11-03T17:48:22.219Z,11.70
2017-11-03T17:50:48.600Z,11.70
2017-11-03T17:53:14.994Z,11.90
2017-11-03T17:55:41.374Z,11.80
2017-11-03T17:58:07.729Z,11.80
2017-11-03T18:00:35.873Z,11.90
2017-11-03T18:03:02.208Z,11.80
2017-11-03T18:05:28.553Z,11.80
2017-11-03T18:07:54.913Z,11.80
2017-11-03T18:10:21.284Z,11.80
2017-11-03T18:12:47.653Z,11.70
2017-11-03T18:15:14.057Z,11.70
2017-11-03T18:17:44.091Z,11.70
2017-11-03T18:20:10.465Z,11.70
2017-11-03T18:22:37.661Z,11.60
2017-11-03T18:25:04.046Z,11.60
2017-11-03T18:27:30.404Z,11.60
2017-11-03T18:29:56.770Z,11.50
2017-11-03T18:32:27.809Z,11.50
2017-11-03T18:34:54.193Z,11.50
2017-11-03T18:37:20.537Z,11.20
2017-11-03T18:39:46.889Z,11.40
2017-11-03T18:42:13.259Z,11.50
2017-11-03T18:44:39.595Z,11.50
2017-11-03T18:47:06.013Z,11.50
2017-11-03T18:49:36.312Z,11.50
2017-11-03T18:52:02.697Z,11.50
2017-11-03T18:54:29.798Z,11.50
2017-11-03T18:56:56.958Z,11.50
2017-11-03T18:59:23.496Z,11.50
2017-11-03T19:01:49.899Z,11.50
2017-11-03T19:04:16.289Z,11.40
2017-11-03T19:06:46.190Z,11.50
2017-11-03T19:09:12.610Z,11.40
2017-11-03T19:11:46.177Z,11.40
2017-11-03T19:14:12.546Z,11.40
2017-11-03T19:16:38.958Z,11.40
2017-11-03T19:19:11.272Z,11.40
2017-11-03T19:21:37.613Z,11.50
2017-11-03T19:24:03.997Z,11.50
2017-11-03T19:26:30.358Z,11.40
2017-11-03T19:28:56.794Z,11.40
2017-11-03T19:31:23.128Z,11.70
2017-11-03T19:33:54.116Z,11.40
2017-11-03T19:36:21.250Z,11.20
2017-11-03T19:38:47.602Z,11.20
2017-11-03T19:41:14.669Z,11.20
2017-11-03T19:43:41.770Z,11.20
2017-11-03T19:46:08.109Z,11.20
2017-11-03T19:48:34.442Z,11.00
2017-11-03T19:51:00.784Z,11.20
2017-11-03T19:53:29.458Z,10.90
2017-11-03T19:55:55.959Z,10.80
2017-11-03T19:58:23.100Z,10.70
2017-11-03T20:00:50.509Z,10.70
2017-11-03T20:03:33.866Z,10.60
2017-11-03T20:06:00.221Z,10.60
2017-11-03T20:08:27.298Z,10.40
2017-11-03T20:10:54.397Z,10.40
2017-11-03T20:13:21.502Z,10.30
2017-11-03T20:15:47.928Z,10.00
2017-11-03T20:18:14.298Z,10.30
2017-11-03T20:20:44.682Z,10.30
2017-11-03T20:23:10.838Z,10.30
2017-11-03T20:25:36.971Z,10.20
2017-11-03T20:28:03.092Z,10.20
2017-11-03T20:30:29.262Z,10.10
2017-11-03T20:32:55.740Z,10.20
2017-11-03T20:35:22.073Z,10.10
2017-11-03T20:37:48.424Z,10.10
2017-11-03T20:40:20.237Z,10.00
2017-11-03T20:42:46.392Z,9.90
2017-11-03T20:45:12.566Z,9.90
2017-11-03T20:47:38.730Z,9.80
2017-11-03T20:50:04.839Z,9.80
2017-11-03T20:52:30.996Z,9.80
2017-11-03T20:54:57.124Z,9.70
2017-11-03T20:57:23.450Z,9.70
2017-11-03T20:59:54.122Z,9.60
2017-11-03T21:02:20.297Z,9.60
2017-11-03T21:04:46.413Z,9.50
2017-11-03T21:07:12.561Z,9.50
2017-11-03T21:09:38.701Z,9.40
2017-11-03T21:12:04.897Z,9.40
2017-11-03T21:14:31.124Z,9.40
2017-11-03T21:16:57.300Z,9.40
2017-11-03T21:21:58.285Z,9.30
2017-11-03T21:24:24.616Z,9.30
2017-11-03T21:26:50.913Z,9.30
2017-11-03T21:29:17.070Z,9.40
2017-11-03T21:31:44.055Z,9.40
2017-11-03T21:34:10.273Z,9.40
2017-11-03T21:36:39.413Z,9.40
2017-11-03T21:39:05.605Z,9.30
2017-11-03T21:41:31.752Z,9.30
2017-11-03T21:43:58.106Z,9.30
2017-11-03T21:46:25.050Z,9.20
2017-11-03T21:48:51.197Z,9.20
2017-11-03T21:51:17.354Z,9.20
2017-11-03T21:53:48.603Z,9.20
2017-11-03T21:56:15.485Z,9.20
2017-11-03T21:58:41.651Z,9.50
2017-11-03T22:01:07.799Z,9.20
2017-11-03T22:03:33.942Z,9.20
2017-11-03T22:06:00.095Z,9.10
2017-11-03T22:08:26.263Z,9.10
2017-11-03T22:10:52.486Z,9.10
2017-11-03T22:13:22.628Z,9.10
2017-11-03T22:15:48.774Z,9.00
2017-11-03T22:18:14.927Z,9.00
2017-11-03T22:20:41.810Z,8.90
2017-11-03T22:23:07.989Z,8.90
2017-11-03T22:25:34.146Z,8.90
2017-11-03T22:28:00.295Z,8.90
2017-11-03T22:30:26.457Z,8.90
2017-11-03T22:32:52.706Z,8.80
2017-11-03T22:35:18.848Z,8.80
2017-11-03T22:37:45.737Z,8.70
2017-11-03T22:40:11.874Z,8.90
2017-11-03T22:42:38.024Z,8.80
2017-11-03T22:45:04.177Z,8.80
2017-11-03T22:47:31.615Z,8.60
2017-11-03T22:49:57.795Z,8.60
2017-11-03T22:52:25.312Z,8.50
2017-11-03T22:54:51.512Z,8.60
2017-11-03T22:57:17.713Z,8.60
2017-11-03T22:59:43.841Z,8.50
2017-11-03T23:02:10.284Z,8.50
2017-11-03T23:04:37.168Z,8.50
2017-11-03T23:07:03.318Z,8.50
2017-11-03T23:09:29.622Z,8.50
2017-11-03T23:11:56.485Z,8.50
2017-11-03T23:14:24.364Z,8.50
2017-11-03T23:16:51.235Z,8.50
2017-11-03T23:19:17.353Z,8.50
2017-11-03T23:21:44.242Z,8.50
2017-11-03T23:24:10.417Z,8.40
2017-11-03T23:26:36.569Z,8.40
2017-11-03T23:29:02.702Z,8.40
2017-11-03T23:31:28.853Z,8.40
2017-11-03T23:33:55.773Z,8.30
2017-11-03T23:36:21.914Z,8.30
2017-11-03T23:38:48.042Z,8.30
2017-11-03T23:41:14.176Z,8.30
2017-11-03T23:43:40.662Z,8.30
2017-11-03T23:46:06.802Z,8.30
2017-11-03T23:48:33.720Z,7.90
2017-11-03T23:50:59.879Z,8.10
2017-11-03T23:53:26.038Z,8.20
2017-11-03T23:55:52.915Z,8.00
2017-11-03T23:58:19.076Z,8.00
